• Join FlightAware (Why Join?)
  • Login
  • US Flag 
02:56AM EDT


 

Airport Tracker/Info


-or-


 

Live Flight TrackerFlight Track Log ✈ SWA2139 ✈ 25-Apr-2013 ✈ KAUS - KELP

Flight Track Log - Related Links

Times and Time Zones

All times are in EDT time to prevent confusion due to time zone crossing. See the SWA2139 flight status page for this flight to view local times or setup timezone preferences in your user account.

Time Position Orientation Groundspeed Altitude Reporting Facility
EDT Latitude Longitude Course Direction KTS MPH feet Rate Location/Type
08:30AM 30.2961 -97.7281 278° West 223 257 4,800  Level Houston Center
08:31AM 30.3428 -97.7939 309° West 266 306 8,700 3,180 Climbing Houston Center
08:32AM 30.3550 -97.8886 279° West 287 330 11,400 3,120 Climbing Houston Center
08:33AM 30.3689 -97.9997 278° West 331 381 15,200 3,240 Climbing Houston Center
08:34AM 30.4167 -97.9381 270° West  Level FlightAware Approximate
08:34AM 30.3850 -98.1125 279° West 349 402 18,100  Level Houston Center
08:35AM 30.4224 -98.0480 278° West  Level FlightAware Approximate
08:35AM 30.3997 -98.2308 278° West 363 418 21,000  Level Houston Center
08:36AM 30.4189 -98.3722 279° West 373 429 24,200 2,760 Climbing Houston Center
08:37AM 30.4336 -98.4950 278° West 381 438 26,800 2,160 Climbing Houston Center
08:38AM 30.4494 -98.6200 278° West 387 445 28,700 1,800 Climbing Houston Center
08:39AM 30.4661 -98.7489 279° West 397 457 30,500 1,980 Climbing Houston Center
08:40AM 30.4839 -98.8778 279° West 401 461 32,900 2,220 Climbing Houston Center
08:41AM 30.4994 -98.9992 278° West 382 440 35,200 1,500 Climbing Houston Center
08:42AM 30.5119 -99.1156 277° West 363 418 36,000 360 Climbing Houston Center
08:43AM 30.5267 -99.2306 278° West 361 415 36,000  Level Houston Center
08:44AM 30.5417 -99.3458 279° West 361 415 36,000  Level Houston Center
08:45AM 30.5561 -99.4617 278° West 364 419 36,000  Level Houston Center
08:46AM 30.5731 -99.6000 278° West 363 418 36,000  Level Houston Center
08:47AM 30.5861 -99.7150 278° West 362 417 36,000  Level Houston Center
08:48AM 30.6011 -99.8311 279° West 364 419 36,000  Level Houston Center
08:49AM 30.6244 -99.9453 283° West 364 419 36,000  Level Houston Center
08:50AM 30.6478 -100.0589 283° West 364 419 36,000  Level Houston Center
08:51AM 30.6703 -100.1728 283° West 365 420 36,000  Level Houston Center
08:52AM 30.6978 -100.3094 283° West 367 422 36,000  Level Houston Center
08:53AM 30.7200 -100.4253 283° West 371 427 36,000  Level Houston Center
08:54AM 30.7425 -100.5394 283° West 374 430 36,000  Level Houston Center
08:55AM 30.7661 -100.6528 284° West 371 427 36,000  Level Houston Center
08:57AM 30.7878 -100.7681 282° West 368 423 36,000  Level Houston Center
08:58AM 30.8158 -100.9058 283° West 367 422 36,000  Level Houston Center
08:59AM 30.8372 -101.0214 282° West 369 425 36,000  Level Houston Center
09:00AM 30.8583 -101.1375 282° West 371 427 36,000  Level Houston Center
09:01AM 30.8839 -101.2492 285° West 364 419 36,000  Level Houston Center
09:02AM 30.9053 -101.3650 282° West 365 420 36,000  Level Houston Center
09:03AM 30.9272 -101.4878 282° West 368 423 36,000  Level Houston Center
09:04AM 30.9483 -101.6033 282° West 366 421 36,000  Level Houston Center
09:05AM 30.9708 -101.7186 283° West 366 421 36,000  Level Houston Center
09:06AM 30.9958 -101.8561 282° West 362 417 36,000  Level Houston Center
09:07AM 31.0178 -101.9708 283° West 363 418 36,000  Level Houston Center
09:08AM 31.0397 -102.0850 283° West 361 415 36,000  Level Houston Center
09:09AM 31.0603 -102.1992 282° West 358 412 36,000  Level Houston Center
09:10AM 31.0797 -102.3144 281° West 357 411 36,000  Level Houston Center
09:11AM 31.1031 -102.4353 283° West 359 413 36,000  Level Albuquerque Center
09:12AM 31.1228 -102.5478 282° West 359 413 36,000  Level Albuquerque Center
09:13AM 31.1431 -102.6608 282° West 355 409 36,000  Level Albuquerque Center
09:14AM 31.1642 -102.7761 282° West 359 413 36,000  Level Albuquerque Center
09:15AM 31.1850 -102.8914 282° West 361 415 36,000  Level Albuquerque Center
09:16AM 31.2050 -103.0075 281° West 363 418 36,000  Level Albuquerque Center
09:17AM 31.2292 -103.1472 281° West 365 420 36,000  Level Albuquerque Center
09:18AM 31.2508 -103.2658 282° West 371 427 36,000  Level Albuquerque Center
09:19AM 31.2719 -103.3828 282° West 369 425 36,000  Level Albuquerque Center
09:20AM 31.2908 -103.5006 281° West 371 427 36,000  Level Albuquerque Center
09:21AM 31.3111 -103.6169 282° West 367 422 36,000  Level Albuquerque Center
09:22AM 31.3319 -103.7333 282° West 367 422 36,000  Level Albuquerque Center
09:23AM 31.3514 -103.8428 282° West 364 419 36,000  Level Albuquerque Center
09:24AM 31.3686 -103.9564 280° West 359 413 36,000  Level Albuquerque Center
09:25AM 31.3883 -104.0689 282° West 357 411 36,000  Level Albuquerque Center
09:26AM 31.4075 -104.1825 281° West 357 411 36,000  Level Albuquerque Center
09:27AM 31.4275 -104.2933 282° West 354 407 36,000  Level Albuquerque Center
09:28AM 31.4489 -104.4283 281° West 353 406 36,000  Level Albuquerque Center
09:29AM 31.4631 -104.5431 278° West 357 411 36,000  Level Albuquerque Center
09:30AM 31.4744 -104.6586 277° West 360 414 36,000  Level Albuquerque Center
09:31AM 31.4872 -104.7742 277° West 361 415 36,000 -840 Level Albuquerque Center
09:32AM 31.4986 -104.8892 277° West 360 414 34,400 -2,520 Descending Albuquerque Center
09:33AM 31.5108 -105.0053 277° West 361 415 30,900 -3,120 Descending Albuquerque Center
09:34AM 31.5219 -105.1233 276° West 366 421 28,100 -2,700 Descending Albuquerque Center
09:35AM 31.5342 -105.2369 277° West 359 413 25,500 -2,580 Descending Albuquerque Center
09:36AM 31.5439 -105.3525 276° West 361 415 22,900 -2,580 Descending Albuquerque Center
09:37AM 31.5550 -105.4625 277° West 343 395 20,300 -2,820 Descending Albuquerque Center
09:38AM 31.5606 -105.5347 275° West 334 384 18,800 -2,760 Descending Albuquerque Center
09:38AM 31.5686 -105.5906 280° West 332 382 17,500 -2,520 Descending Albuquerque Center
09:39AM 31.5722 -105.6417 275° West 334 384 16,300 -2,460 Descending Albuquerque Center
09:39AM 31.5783 -105.6981 277° West 333 383 15,000 -2,460 Descending Albuquerque Center
09:40AM 31.5836 -105.7486 277° West 330 380 13,800 -2,460 Descending Albuquerque Center
09:40AM 31.5897 -105.8028 278° West 327 376 12,500 -2,340 Descending Albuquerque Center
09:41AM 31.6103 -105.8467 299° West 327 376 11,500 -2,100 Descending Albuquerque Center
09:41AM 31.6358 -105.8942 302° West 323 372 10,400 -1,320 Descending Albuquerque Center
09:42AM 31.6547 -105.9353 298° West 319 367 10,200 -900 Descending Albuquerque Center
09:42AM 31.6775 -105.9778 302° West 300 345 9,500 -1,500 Descending Albuquerque Center
09:43AM 31.6983 -106.0217 299° West 275 316 8,700 -1,320 Descending Albuquerque Center
09:43AM 31.7167 -106.0558 302° West 280 322 8,200 -600 Descending Albuquerque Center
09:44AM 31.7336 -106.0975 296° West 266 306 8,100 -300 Descending Albuquerque Center
09:45AM 31.7478 -106.1319 296° West 263 303 7,900 -900 Descending Albuquerque Center
09:45AM 31.7608 -106.1758 289° West 254 292 7,200 -1,320 Descending Albuquerque Center
09:46AM 31.7731 -106.2086 294° West 253 291 6,600 -1,320 Descending Albuquerque Center
09:46AM 31.7847 -106.2472 290° West 238 274 5,900 -1,200 Descending Albuquerque Center
09:47AM 31.7958 -106.2753 295° West 223 257 5,400 -1,020 Descending Albuquerque Center
09:47AM 31.7975 -106.3064 274° West 165 190 4,900 -900 Descending Albuquerque Center
09:48AM 31.7986 -106.3275 274° West 162 186 4,500 -720 Descending Albuquerque Center
09:48AM 31.7997 -106.3533 273° West 128 147 4,200 -540 Descending Albuquerque Center
09:49AM 31.8025 -106.3753 278° West 144 166 4,000 -360 Descending Albuquerque Center
09:51AM 31.8000 -106.3667 270° West  Level FlightAware Approximate
09:58AM 31.8072 -106.3764 270° West  Level Estimated
09:59AM 31.8072 -106.3764 270° West  Level Estimated
10:00AM 31.8072 -106.3764 270° West  Level Estimated